Time;durP1;ratioP1;P1;durP2;ratioP2;P2;SDS_P1;SDS_P2;PMS_P1;PMS_P2;Temp;Humidity;BMP_temperature;BMP_pressure;BME280_temperature;BME280_humidity;BME280_pressure;Samples;Min_cycle;Max_cycle;Signal;HPM_P1;HPM_P2
2022/06/06 00:01:49;;;;;;;6.63;5.72;;;;;;;23.51;70.96;100418.09;4998562;28;20042;-83
2022/06/06 00:04:16;;;;;;;9.10;5.85;;;;;;;23.50;70.72;100424.63;4997424;28;20032;-83
2022/06/06 00:06:42;;;;;;;9.95;5.50;;;;;;;23.54;70.26;100436.03;4996766;28;20029;-83
2022/06/06 00:09:11;;;;;;;9.20;6.32;;;;;;;23.58;70.30;100454.59;4997024;28;20038;-83
2022/06/06 00:11:37;;;;;;;11.18;6.18;;;;;;;23.54;70.74;100458.84;4997766;28;20052;-83
2022/06/06 00:14:04;;;;;;;7.90;6.32;;;;;;;23.59;70.78;100453.53;5014751;28;20464;-83
2022/06/06 00:16:31;;;;;;;10.25;6.35;;;;;;;23.61;70.54;100439.59;4997685;28;20096;-82
2022/06/06 00:18:56;;;;;;;8.23;6.22;;;;;;;23.71;70.48;100438.09;5014127;28;20026;-82
2022/06/06 00:21:23;;;;;;;10.48;6.53;;;;;;;23.71;70.17;100429.88;5014512;28;20057;-82
2022/06/06 00:23:50;;;;;;;12.52;6.60;;;;;;;23.77;70.06;100422.66;4996745;28;20408;-81
2022/06/06 00:26:16;;;;;;;9.80;6.57;;;;;;;23.67;70.20;100416.75;4997153;28;20038;-82
2022/06/06 00:28:44;;;;;;;8.90;6.40;;;;;;;23.74;69.93;100423.94;5014114;28;20037;-82
2022/06/06 00:36:40;;;;;;;9.27;6.50;;;;;;;23.58;70.81;100407.91;5014524;28;20037;-82
2022/06/06 00:39:08;;;;;;;9.98;6.50;;;;;;;23.52;70.65;100413.41;4996830;28;20025;-83
2022/06/06 00:41:38;;;;;;;8.02;6.15;;;;;;;23.41;70.77;100401.19;5014120;28;20030;-83
2022/06/06 00:44:22;;;;;;;10.23;5.80;;;;;;;23.38;71.17;100401.59;5013851;28;20022;-83
2022/06/06 00:46:52;;;;;;;11.85;6.10;;;;;;;23.37;71.21;100402.63;5013762;28;20089;-82
2022/06/06 00:49:26;;;;;;;8.85;5.72;;;;;;;23.24;71.09;100372.47;4979853;28;20042;-83
2022/06/06 00:51:56;;;;;;;13.45;6.95;;;;;;;23.22;71.07;100369.09;4996312;28;20029;-83
2022/06/06 00:54:23;;;;;;;12.88;5.95;;;;;;;23.25;70.95;100363.19;4996254;28;20033;-82
2022/06/06 00:57:06;;;;;;;9.40;5.95;;;;;;;23.23;71.35;100346.94;5013635;28;20103;-82
2022/06/06 00:59:36;;;;;;;17.02;5.88;;;;;;;23.18;71.36;100321.19;5013099;28;20030;-83
2022/06/06 01:02:02;;;;;;;11.43;5.60;;;;;;;23.21;71.54;100339.97;5013911;28;20017;-83
2022/06/06 01:04:29;;;;;;;10.27;5.55;;;;;;;23.16;71.72;100328.78;4995802;28;20029;-83
2022/06/06 01:06:56;;;;;;;9.90;6.50;;;;;;;23.24;71.74;100356.00;5014302;28;20029;-83
2022/06/06 01:09:24;;;;;;;8.73;6.18;;;;;;;23.14;71.88;100366.59;4996161;28;20448;-83
2022/06/06 01:12:13;;;;;;;14.75;6.53;;;;;;;23.07;72.40;100349.28;5013862;28;20522;-83
2022/06/06 01:14:45;;;;;;;12.23;6.30;;;;;;;23.14;72.41;100367.44;4995825;28;20037;-83
2022/06/06 01:17:52;;;;;;;11.40;6.20;;;;;;;23.14;72.30;100363.84;5013628;28;20036;-83
2022/06/06 01:20:20;;;;;;;8.93;6.32;;;;;;;23.12;72.49;100368.66;4914993;29;20565;-82
2022/06/06 01:23:03;;;;;;;9.05;6.15;;;;;;;23.08;72.10;100356.47;4965248;28;20408;-83
2022/06/06 01:26:00;;;;;;;9.45;6.18;;;;;;;23.10;72.67;100359.81;4976444;28;20404;-84
2022/06/06 01:28:46;;;;;;;13.75;5.53;;;;;;;23.11;72.11;100356.03;4994721;28;20387;-83
2022/06/06 01:31:21;;;;;;;10.80;5.30;;;;;;;23.06;72.15;100362.13;4977109;28;20032;-83
2022/06/06 01:33:56;;;;;;;10.27;5.82;;;;;;;23.04;72.16;100349.69;4978103;28;20038;-82
2022/06/06 01:36:26;;;;;;;10.07;6.10;;;;;;;23.09;71.79;100358.13;4994565;28;20027;-83
2022/06/06 01:38:53;;;;;;;14.32;5.32;;;;;;;22.96;71.88;100353.53;4961454;28;20467;-83
2022/06/06 01:41:48;;;;;;;14.95;6.25;;;;;;;23.08;72.42;100379.25;4994182;28;20072;-82
2022/06/06 01:44:42;;;;;;;20.08;5.85;;;;;;;23.08;72.34;100381.16;4989754;28;20042;-83
2022/06/06 01:47:24;;;;;;;7.20;5.28;;;;;;;23.05;72.11;100400.78;4983368;28;20064;-82
2022/06/06 01:49:50;;;;;;;11.10;5.07;;;;;;;23.04;72.03;100393.59;5006924;28;20050;-81
2022/06/06 01:52:16;;;;;;;7.70;5.55;;;;;;;23.07;71.99;100398.66;5004686;28;20065;-81
2022/06/06 01:54:42;;;;;;;13.70;5.43;;;;;;;23.06;72.14;100405.19;5003584;28;20035;-81
2022/06/06 01:57:14;;;;;;;7.40;5.45;;;;;;;22.98;72.70;100392.53;5003206;28;20030;-80
2022/06/06 01:59:40;;;;;;;9.63;5.50;;;;;;;22.85;72.88;100388.94;4976648;28;20030;-82
2022/06/06 02:02:06;;;;;;;15.25;5.80;;;;;;;22.84;73.17;100365.34;4979673;28;20034;-82
2022/06/06 02:04:32;;;;;;;10.25;5.18;;;;;;;22.96;73.21;100385.59;4980551;28;20029;-82
2022/06/06 02:06:57;;;;;;;9.30;5.47;;;;;;;22.86;73.48;100371.44;4964536;28;20167;-82
2022/06/06 02:09:23;;;;;;;17.17;6.20;;;;;;;22.81;73.68;100379.47;4964425;28;20038;-83
2022/06/06 02:11:48;;;;;;;5.88;4.75;;;;;;;22.80;73.66;100375.03;4979468;28;20484;-82
2022/06/06 02:14:14;;;;;;;8.48;5.18;;;;;;;22.74;73.85;100394.00;4980288;28;20117;-82
2022/06/06 02:16:40;;;;;;;8.85;5.25;;;;;;;22.72;74.21;100393.34;4979641;28;20058;-82
2022/06/06 02:19:06;;;;;;;8.00;4.75;;;;;;;22.72;74.14;100396.09;4996882;28;20026;-82
2022/06/06 02:21:33;;;;;;;10.95;6.05;;;;;;;22.64;74.18;100388.06;4989811;28;20054;-83
2022/06/06 02:24:00;;;;;;;20.63;6.03;;;;;;;22.68;74.44;100403.06;5016065;28;20030;-83
2022/06/06 02:26:26;;;;;;;15.45;6.55;;;;;;;22.73;74.28;100405.19;4998942;28;20088;-82
2022/06/06 02:28:51;;;;;;;11.82;5.50;;;;;;;22.72;74.46;100400.72;4998977;28;20124;-82
2022/06/06 02:31:17;;;;;;;14.88;6.32;;;;;;;22.56;74.63;100393.75;5016404;28;20029;-83
2022/06/06 02:33:42;;;;;;;18.40;6.05;;;;;;;22.73;74.41;100403.28;4998900;28;20033;-83
2022/06/06 02:36:09;;;;;;;10.05;7.05;;;;;;;22.63;74.57;100394.56;5016409;28;20026;-82
2022/06/06 02:38:35;;;;;;;17.73;7.28;;;;;;;22.62;75.14;100400.28;5015887;28;20026;-83
2022/06/06 02:41:09;;;;;;;14.48;7.72;;;;;;;22.74;75.29;100410.47;4999543;28;20357;-82
2022/06/06 02:43:42;;;;;;;10.70;7.03;;;;;;;22.70;75.61;100408.34;5016637;28;20403;-82
2022/06/06 02:46:09;;;;;;;17.25;6.82;;;;;;;22.84;75.55;100417.44;4998596;28;20518;-82
2022/06/06 02:48:34;;;;;;;12.82;7.05;;;;;;;22.79;75.72;100393.38;4998181;28;20029;-83
2022/06/06 02:51:02;;;;;;;13.27;6.72;;;;;;;22.72;76.35;100396.09;5016354;28;20026;-82
2022/06/06 02:53:28;;;;;;;7.93;6.32;;;;;;;22.85;76.02;100416.34;5016035;28;20044;-83
2022/06/06 02:55:55;;;;;;;11.88;6.85;;;;;;;22.86;75.56;100413.44;5016160;28;20074;-82
2022/06/06 02:58:22;;;;;;;8.43;5.40;;;;;;;22.73;75.49;100395.06;5016052;28;20029;-82
2022/06/06 03:00:48;;;;;;;10.27;5.05;;;;;;;22.73;75.13;100394.22;4998551;28;20411;-82
2022/06/06 03:03:14;;;;;;;12.52;6.05;;;;;;;22.68;74.80;100388.50;5015808;28;20522;-82
2022/06/06 03:05:43;;;;;;;28.77;5.13;;;;;;;22.62;73.56;100395.66;5007679;28;20084;-82
2022/06/06 03:08:23;;;;;;;8.25;4.05;;;;;;;22.49;72.71;100384.66;5015558;28;20449;-83
2022/06/06 03:11:02;;;;;;;8.40;3.15;;;;;;;22.46;71.67;100390.56;5015747;28;20029;-82
2022/06/06 03:13:39;;;;;;;9.50;2.67;;;;;;;22.41;70.80;100376.63;5015289;28;20034;-83
2022/06/06 03:22:11;;;;;;;6.20;1.77;;;;;;;22.16;68.69;100375.50;5015461;28;20132;-81
2022/06/06 03:24:57;;;;;;;8.88;2.55;;;;;;;22.15;68.58;100360.09;5015015;28;20018;-82
2022/06/06 03:27:36;;;;;;;2.97;1.83;;;;;;;22.09;68.97;100385.59;5014888;28;20033;-82
2022/06/06 03:30:15;;;;;;;11.77;1.98;;;;;;;22.04;69.35;100404.53;5015300;28;20022;-85
2022/06/06 03:32:56;;;;;;;8.15;1.85;;;;;;;21.86;69.54;100387.78;5007718;28;20451;-84
2022/06/06 03:36:05;;;;;;;6.68;2.88;;;;;;;21.99;69.07;100398.81;5015265;28;20073;-84
2022/06/06 03:38:47;;;;;;;6.60;2.45;;;;;;;22.11;69.39;100419.09;4969072;28;20045;-85
2022/06/06 03:41:32;;;;;;;9.93;2.85;;;;;;;22.19;68.69;100413.44;5015408;28;20018;-85
2022/06/06 03:44:03;;;;;;;20.30;3.83;;;;;;;22.20;68.96;100429.66;5015299;28;20038;-84
2022/06/06 03:46:29;;;;;;;11.73;3.22;;;;;;;22.34;68.48;100425.09;5016062;28;20022;-84
2022/06/06 03:49:16;;;;;;;5.85;2.33;;;;;;;22.34;68.04;100430.56;5015312;28;20025;-84
2022/06/06 03:51:44;;;;;;;11.25;3.67;;;;;;;22.36;67.92;100436.69;5015414;28;20030;-85
2022/06/06 03:54:22;;;;;;;9.15;3.30;;;;;;;22.37;67.27;100419.19;5016249;28;20026;-83
2022/06/06 03:56:53;;;;;;;16.52;4.55;;;;;;;22.42;67.70;100449.56;5015690;28;20080;-85
2022/06/06 03:59:21;;;;;;;9.73;2.95;;;;;;;22.35;67.77;100450.59;5014331;28;20480;-84
2022/06/06 04:01:50;;;;;;;10.75;2.78;;;;;;;22.28;67.31;100452.47;5015987;28;20026;-85
2022/06/06 04:04:16;;;;;;;7.15;2.92;;;;;;;22.16;66.96;100487.84;4997313;28;20044;-85
2022/06/06 04:06:44;;;;;;;8.68;2.22;;;;;;;22.15;66.94;100528.06;5013464;28;20033;-79
2022/06/06 04:09:10;;;;;;;11.95;3.42;;;;;;;22.22;67.54;100563.72;5013921;28;20033;-78
2022/06/06 04:11:48;;;;;;;5.72;1.80;;;;;;;22.12;68.05;100555.03;5014124;28;20018;-83
2022/06/06 04:14:28;;;;;;;6.88;1.58;;;;;;;22.05;67.41;100562.34;4997285;28;20108;-82
2022/06/06 04:17:17;;;;;;;9.15;2.10;;;;;;;21.97;67.49;100560.63;4998085;28;20172;-84
2022/06/06 04:20:18;;;;;;;9.23;2.15;;;;;;;22.00;66.53;100562.09;4997790;28;20022;-87
2022/06/06 04:22:51;;;;;;;14.60;2.17;;;;;;;21.73;68.22;100557.44;4975445;28;20119;-86
2022/06/06 04:25:30;;;;;;;11.57;2.28;;;;;;;21.44;70.93;100562.03;4996808;28;20022;-81
2022/06/06 04:28:10;;;;;;;16.70;3.85;;;;;;;21.22;72.76;100568.59;5012617;28;20045;-81
2022/06/06 04:30:36;;;;;;;18.90;5.68;;;;;;;20.90;74.73;100572.63;5014157;28;20022;-81
2022/06/06 04:33:13;;;;;;;17.48;3.67;;;;;;;20.62;76.23;100564.28;5013635;28;20057;-79
2022/06/06 04:36:03;;;;;;;10.68;2.90;;;;;;;20.30;78.43;100552.94;5013723;28;20111;-83
2022/06/06 04:38:38;;;;;;;22.63;6.78;;;;;;;19.92;79.10;100543.94;5013538;28;20064;-83
2022/06/06 04:41:29;;;;;;;18.80;3.38;;;;;;;19.67;80.08;100561.59;4995809;28;20030;-82
2022/06/06 04:44:18;;;;;;;8.82;2.67;;;;;;;19.37;82.20;100547.84;5012145;28;20068;-78
2022/06/06 04:46:59;;;;;;;16.08;3.20;;;;;;;19.15;85.14;100534.22;5012556;28;20036;-77
2022/06/06 04:49:27;;;;;;;8.45;2.30;;;;;;;19.01;85.54;100519.53;5012919;28;20034;-77
2022/06/06 04:51:54;;;;;;;18.23;3.95;;;;;;;18.89;86.10;100534.59;5012428;28;20026;-76
2022/06/06 04:54:22;;;;;;;9.27;4.18;;;;;;;18.87;87.13;100540.22;5012369;28;20058;-75
2022/06/06 04:56:50;;;;;;;12.88;2.70;;;;;;;18.91;87.69;100559.78;5012068;28;20386;-76
2022/06/06 04:59:16;;;;;;;12.10;2.63;;;;;;;18.89;87.99;100564.56;5010932;28;20108;-77
2022/06/06 05:01:42;;;;;;;6.43;2.58;;;;;;;18.82;88.11;100560.88;4994735;28;20033;-78
2022/06/06 05:04:08;;;;;;;7.05;1.92;;;;;;;18.80;88.36;100547.44;5012471;28;20030;-78
2022/06/06 05:06:49;;;;;;;6.07;2.50;;;;;;;18.81;87.24;100532.75;5012600;28;20130;-77
2022/06/06 05:09:36;;;;;;;6.03;1.90;;;;;;;18.72;87.09;100533.84;5010864;28;20443;-78
2022/06/06 05:12:23;;;;;;;6.38;2.03;;;;;;;18.72;87.88;100517.50;5012355;28;20026;-77
2022/06/06 05:14:48;;;;;;;4.40;1.55;;;;;;;18.66;87.87;100510.03;5012465;28;20026;-77
2022/06/06 05:17:28;;;;;;;13.10;1.80;;;;;;;18.61;88.37;100481.66;5012478;28;20037;-78
2022/06/06 05:20:25;;;;;;;4.75;2.25;;;;;;;18.69;88.16;100476.13;5012381;28;20048;-78
2022/06/06 05:22:54;;;;;;;8.77;1.45;;;;;;;18.59;88.58;100479.09;5011777;28;20470;-78
2022/06/06 05:25:31;;;;;;;5.30;1.90;;;;;;;18.60;88.77;100469.91;5012254;28;20032;-78
2022/06/06 05:28:08;;;;;;;3.28;1.50;;;;;;;18.62;88.26;100494.25;5012232;28;20056;-80
2022/06/06 05:31:09;;;;;;;9.63;1.90;;;;;;;18.75;88.54;100494.47;4995260;28;20095;-78
2022/06/06 05:33:46;;;;;;;2.58;1.92;;;;;;;18.83;87.67;100502.63;5011935;28;20029;-78
2022/06/06 05:36:23;;;;;;;4.30;1.65;;;;;;;18.88;87.08;100497.47;4994305;28;20068;-78
2022/06/06 05:39:19;;;;;;;3.08;1.55;;;;;;;18.84;85.16;100487.94;5012199;28;20033;-80
2022/06/06 05:42:03;;;;;;;6.75;1.73;;;;;;;18.91;85.71;100488.91;5012036;28;20057;-79
2022/06/06 05:44:44;;;;;;;5.18;1.58;;;;;;;19.01;85.13;100497.72;5012618;28;20038;-79
2022/06/06 05:47:24;;;;;;;2.63;1.50;;;;;;;19.03;83.95;100503.81;5012122;28;20029;-79
2022/06/06 05:49:58;;;;;;;2.03;1.20;;;;;;;19.10;83.79;100498.50;5012286;28;20056;-79
2022/06/06 05:52:38;;;;;;;2.30;1.08;;;;;;;19.24;83.91;100514.03;5012606;28;20068;-78
2022/06/06 05:55:24;;;;;;;6.00;1.38;;;;;;;19.38;81.38;100514.09;5012436;28;20544;-79
2022/06/06 05:58:04;;;;;;;2.67;0.90;;;;;;;19.48;81.07;100520.16;4994766;28;20037;-79
2022/06/06 06:00:56;;;;;;;4.25;1.80;;;;;;;19.59;81.47;100545.31;4994811;28;20037;-79
2022/06/06 06:03:46;;;;;;;3.53;1.92;;;;;;;19.77;81.48;100554.00;4995283;28;20076;-79
2022/06/06 06:07:00;;;;;;;5.70;1.88;;;;;;;19.92;81.56;100572.09;4995313;28;20026;-80
2022/06/06 06:09:55;;;;;;;8.05;2.25;;;;;;;20.13;81.13;100582.28;4943216;28;20122;-78
2022/06/06 06:12:48;;;;;;;4.57;1.70;;;;;;;20.35;81.80;100597.75;5012693;28;20518;-80
2022/06/06 06:15:36;;;;;;;8.73;1.88;;;;;;;20.49;80.19;100591.44;5012127;28;20146;-79
2022/06/06 06:18:07;;;;;;;6.65;1.95;;;;;;;20.63;79.79;100587.84;5011964;28;20026;-78
2022/06/06 06:21:11;;;;;;;5.30;2.07;;;;;;;20.74;78.44;100582.91;5011796;28;20026;-81
2022/06/06 06:23:49;;;;;;;7.95;2.50;;;;;;;20.88;78.98;100579.31;4983016;28;20057;-80
2022/06/06 06:26:14;;;;;;;18.17;4.35;;;;;;;20.96;78.75;100571.00;5011976;28;20460;-79
2022/06/06 06:28:41;;;;;;;16.15;8.20;;;;;;;21.11;77.50;100590.97;5012046;28;20505;-79
2022/06/06 06:31:31;;;;;;;3.58;1.90;;;;;;;21.07;76.11;100601.41;5011726;28;20084;-80
2022/06/06 06:34:23;;;;;;;5.97;2.35;;;;;;;21.02;76.04;100608.50;5011463;28;20025;-80
2022/06/06 06:37:17;;;;;;;5.18;1.58;;;;;;;20.95;76.72;100596.63;4993829;28;20061;-79
2022/06/06 06:40:04;;;;;;;4.88;1.60;;;;;;;20.99;76.66;100589.75;4993775;28;20037;-79
2022/06/06 06:42:52;;;;;;;2.72;1.77;;;;;;;21.04;77.62;100587.25;5011770;28;20038;-79
2022/06/06 06:45:26;;;;;;;6.40;3.20;;;;;;;21.09;78.01;100577.50;4993558;28;20084;-79
2022/06/06 06:47:58;;;;;;;3.22;1.83;;;;;;;21.23;77.67;100570.25;5013718;28;20022;-79
2022/06/06 06:50:33;;;;;;;3.67;1.85;;;;;;;21.41;76.96;100575.28;5014903;28;20025;-79
2022/06/06 06:53:13;;;;;;;4.38;1.88;;;;;;;21.57;75.91;100570.38;5014932;28;20040;-79
2022/06/06 06:55:51;;;;;;;6.10;1.58;;;;;;;21.68;74.32;100571.72;5013561;28;20079;-80
2022/06/06 06:58:44;;;;;;;4.63;2.17;;;;;;;21.70;74.32;100567.75;5014425;28;20022;-80
2022/06/06 07:01:16;;;;;;;16.00;3.08;;;;;;;21.79;74.61;100570.34;4996860;28;20022;-80
2022/06/06 07:09:57;;;;;;;8.68;2.83;;;;;;;22.10;74.05;100571.66;5014581;28;20123;-80
2022/06/06 07:12:43;;;;;;;7.50;2.22;;;;;;;22.18;72.23;100570.66;5013854;28;20037;-80
2022/06/06 07:15:18;;;;;;;11.65;2.80;;;;;;;22.33;70.60;100568.63;4979545;28;20037;-80
2022/06/06 07:17:53;;;;;;;7.43;2.85;;;;;;;22.47;70.24;100567.66;5014081;28;20030;-78
2022/06/06 07:20:20;;;;;;;3.00;1.70;;;;;;;22.58;68.88;100564.34;5013686;28;20025;-79
2022/06/06 07:23:04;;;;;;;7.97;2.33;;;;;;;22.81;68.91;100575.03;5014019;28;20540;-80
2022/06/06 07:25:39;;;;;;;4.22;1.33;;;;;;;22.92;67.43;100576.31;5013964;28;20404;-79
2022/06/06 07:28:07;;;;;;;29.77;4.00;;;;;;;23.04;66.91;100585.63;5013909;28;20139;-79
2022/06/06 07:30:41;;;;;;;4.28;2.50;;;;;;;23.14;66.26;100589.69;5013860;28;20105;-80
2022/06/06 07:33:38;;;;;;;55.42;4.75;;;;;;;23.30;66.91;100597.50;5013786;28;20029;-79
2022/06/06 07:36:37;;;;;;;50.92;5.63;;;;;;;23.33;65.81;100608.06;5014032;28;20496;-80
2022/06/06 07:39:29;;;;;;;10.23;1.52;;;;;;;23.28;63.61;100620.72;5013706;28;20022;-79
2022/06/06 07:42:00;;;;;;;73.13;6.53;;;;;;;23.30;64.19;100619.47;5013950;28;20033;-79
2022/06/06 07:44:43;;;;;;;27.73;4.13;;;;;;;23.39;65.58;100611.06;5013826;28;20249;-80
2022/06/06 07:47:34;;;;;;;16.13;2.05;;;;;;;23.63;65.55;100616.84;5013667;28;20060;-78
2022/06/06 07:50:10;;;;;;;42.67;3.95;;;;;;;23.68;64.19;100611.53;4995760;28;20059;-79
2022/06/06 07:52:57;;;;;;;59.00;4.30;;;;;;;23.71;64.89;100605.63;4996008;28;20036;-79
2022/06/06 07:55:29;;;;;;;46.03;3.42;;;;;;;23.76;63.99;100608.56;5013303;28;20498;-79
2022/06/06 07:58:17;;;;;;;24.00;3.87;;;;;;;23.70;63.95;100614.91;5013298;28;20449;-78
2022/06/06 08:00:56;;;;;;;62.72;5.60;;;;;;;23.83;63.79;100620.44;4995689;28;20419;-79
2022/06/06 08:03:37;;;;;;;29.75;4.18;;;;;;;24.04;62.88;100637.75;5013323;28;20128;-80
2022/06/06 08:06:35;;;;;;;70.85;5.88;;;;;;;24.23;63.48;100637.78;5013240;28;20022;-79
2022/06/06 08:09:33;;;;;;;42.10;4.85;;;;;;;24.42;61.68;100638.81;5013473;28;20029;-79
2022/06/06 08:12:12;;;;;;;20.88;3.78;;;;;;;24.43;61.07;100637.75;4995276;28;20052;-79
2022/06/06 08:14:59;;;;;;;41.85;4.28;;;;;;;24.45;61.17;100626.53;4995282;28;20190;-79
2022/06/06 08:17:45;;;;;;;22.98;3.00;;;;;;;24.50;61.83;100626.72;4995234;28;20036;-79
2022/06/06 08:20:54;;;;;;;89.40;7.10;;;;;;;24.66;61.28;100621.59;5012736;28;20030;-79
2022/06/06 08:23:22;;;;;;;40.45;3.53;;;;;;;24.78;61.11;100638.28;4973535;28;20054;-80
2022/06/06 08:25:49;;;;;;;25.10;4.57;;;;;;;24.77;61.23;100625.56;5013309;28;20113;-81
2022/06/06 08:28:16;;;;;;;29.90;4.55;;;;;;;24.75;61.57;100620.31;5013140;28;20055;-78
2022/06/06 08:30:44;;;;;;;17.48;2.70;;;;;;;24.80;61.18;100627.88;5012848;28;20469;-79
2022/06/06 08:33:10;;;;;;;56.08;5.90;;;;;;;24.88;61.89;100634.03;5012689;28;20038;-79
2022/06/06 08:36:16;;;;;;;20.45;3.38;;;;;;;25.02;60.57;100628.47;5012887;28;20030;-79
2022/06/06 08:39:06;;;;;;;14.02;2.75;;;;;;;24.98;60.34;100619.81;5003413;28;20038;-79
2022/06/06 08:42:05;;;;;;;59.53;6.68;;;;;;;25.07;61.54;100620.41;5012366;28;20026;-80
2022/06/06 08:44:50;;;;;;;49.63;6.70;;;;;;;25.04;61.52;100616.19;5006961;28;20037;-78
2022/06/06 08:47:28;;;;;;;10.75;2.70;;;;;;;25.10;61.17;100618.06;5011938;28;20026;-78
2022/06/06 08:50:53;;;;;;;34.53;8.55;;;;;;;25.14;61.16;100618.44;5011643;28;20037;-78
2022/06/06 08:53:43;;;;;;;43.00;5.00;;;;;;;25.25;59.58;100615.03;4932705;29;20118;-79
2022/06/06 08:56:33;;;;;;;7.65;2.33;;;;;;;25.33;58.87;100609.25;4932582;29;20415;-78
2022/06/06 08:59:08;;;;;;;8.60;2.90;;;;;;;25.24;57.95;100599.56;5007502;28;20100;-78
2022/06/06 09:01:52;;;;;;;10.70;2.78;;;;;;;25.13;59.26;100614.88;4994322;28;20060;-78
2022/06/06 09:04:39;;;;;;;11.82;2.63;;;;;;;25.19;59.28;100619.50;5012094;28;20037;-78
2022/06/06 09:07:26;;;;;;;30.75;3.90;;;;;;;25.21;58.54;100624.78;5012289;28;20034;-79
2022/06/06 09:10:22;;;;;;;26.85;4.82;;;;;;;25.21;58.88;100611.00;5011537;28;20025;-78
2022/06/06 09:13:09;;;;;;;27.48;4.10;;;;;;;25.23;59.29;100612.47;5012127;28;20076;-79
2022/06/06 09:15:56;;;;;;;13.90;2.95;;;;;;;25.38;59.58;100609.44;5010492;28;20038;-79
2022/06/06 09:19:02;;;;;;;11.95;5.10;;;;;;;25.63;57.62;100617.75;5012020;28;20443;-78
2022/06/06 09:22:04;;;;;;;8.23;2.55;;;;;;;25.67;56.74;100614.34;4993855;28;20099;-78
2022/06/06 09:24:36;;;;;;;10.77;5.00;;;;;;;26.02;57.08;100624.88;4994082;28;20026;-79
2022/06/06 09:27:20;;;;;;;20.87;2.90;;;;;;;26.23;55.84;100618.97;5011596;28;20029;-79
2022/06/06 09:30:22;;;;;;;18.90;3.35;;;;;;;26.50;55.16;100617.63;4994086;28;20581;-78
2022/06/06 09:33:05;;;;;;;24.33;3.37;;;;;;;26.68;53.75;100605.75;5011679;28;20033;-79
2022/06/06 09:35:56;;;;;;;4.07;1.63;;;;;;;26.81;52.67;100608.41;5011631;28;20403;-78
2022/06/06 09:38:37;;;;;;;9.45;2.75;;;;;;;26.71;53.96;100617.19;5011807;28;20026;-78
2022/06/06 09:41:14;;;;;;;6.53;1.85;;;;;;;26.66;54.85;100602.41;5011518;28;20022;-79
2022/06/06 09:43:55;;;;;;;10.10;2.50;;;;;;;26.66;55.12;100597.72;5009998;28;20065;-79
2022/06/06 09:46:48;;;;;;;31.85;3.90;;;;;;;26.51;55.41;100597.28;5011040;28;20025;-79
2022/06/06 09:49:51;;;;;;;9.32;2.35;;;;;;;26.45;55.80;100601.75;5011492;28;20022;-79
2022/06/06 09:52:41;;;;;;;6.50;2.13;;;;;;;26.67;56.07;100593.88;5011312;28;20022;-79
2022/06/06 10:01:36;;;;;;;8.88;2.50;;;;;;;26.98;53.36;100574.41;5011440;28;20084;-78
2022/06/06 10:04:07;;;;;;;11.00;2.65;;;;;;;26.61;55.65;100572.72;5011763;28;20030;-77
2022/06/06 10:06:53;;;;;;;9.47;3.10;;;;;;;26.67;56.63;100577.31;5009949;28;20037;-78
2022/06/06 10:10:00;;;;;;;13.65;3.00;;;;;;;26.66;56.42;100580.31;5011180;28;20072;-78
2022/06/06 10:12:50;;;;;;;16.38;3.13;;;;;;;26.37;56.77;100581.91;5011244;28;20519;-78
2022/06/06 10:15:36;;;;;;;50.38;4.75;;;;;;;26.29;57.82;100576.72;5011008;28;20030;-77
2022/06/06 10:18:19;;;;;;;43.53;6.88;;;;;;;26.34;57.76;100583.22;5011095;28;20044;-78
2022/06/06 10:21:01;;;;;;;15.88;3.60;;;;;;;26.24;57.80;100587.56;5009745;28;20056;-78
2022/06/06 10:23:50;;;;;;;29.42;4.95;;;;;;;25.96;58.52;100591.63;4996973;28;20407;-77
2022/06/06 10:26:53;;;;;;;4.57;2.67;;;;;;;25.68;59.02;100588.50;5014831;28;20054;-77
2022/06/06 10:30:30;;;;;;;9.73;3.33;;;;;;;25.39;60.04;100589.06;5014865;28;20109;-77
2022/06/06 10:32:54;;;;;;;27.55;5.18;;;;;;;25.15;61.49;100584.38;4981108;28;20045;-76
2022/06/06 10:35:37;;;;;;;12.65;3.30;;;;;;;25.13;62.17;100590.09;5014428;28;20030;-76
2022/06/06 10:38:21;;;;;;;15.07;4.05;;;;;;;25.26;62.93;100597.41;5014764;28;20029;-76
2022/06/06 10:40:58;;;;;;;10.30;2.50;;;;;;;25.37;61.81;100591.22;4997018;28;20404;-75
2022/06/06 10:43:36;;;;;;;9.05;2.85;;;;;;;25.64;60.99;100595.50;4997213;28;20034;-77
2022/06/06 10:46:10;;;;;;;9.93;2.63;;;;;;;25.67;60.84;100592.31;5014668;28;20547;-77
2022/06/06 10:49:16;;;;;;;23.27;4.00;;;;;;;25.54;62.05;100589.63;5014655;28;20051;-77
2022/06/06 10:51:46;;;;;;;28.85;4.45;;;;;;;25.30;62.43;100595.91;4996926;28;20495;-78
2022/06/06 10:54:31;;;;;;;39.78;5.78;;;;;;;25.09;64.79;100593.50;5014330;28;20129;-78
2022/06/06 10:57:02;;;;;;;13.60;3.20;;;;;;;25.07;65.44;100590.13;5014488;28;20420;-77
2022/06/06 10:59:53;;;;;;;33.50;4.70;;;;;;;24.97;66.14;100584.25;5014428;28;20084;-77
2022/06/06 11:02:40;;;;;;;22.98;5.38;;;;;;;24.78;66.89;100586.84;5014061;28;20268;-76
2022/06/06 11:05:05;;;;;;;44.55;6.18;;;;;;;24.62;67.44;100592.81;4996814;28;20121;-78
2022/06/06 11:07:40;;;;;;;18.98;5.30;;;;;;;24.61;68.61;100590.31;5014370;28;20110;-78
2022/06/06 11:10:30;;;;;;;37.33;6.75;;;;;;;24.65;70.10;100592.41;5012574;28;20120;-77
2022/06/06 11:12:56;;;;;;;32.75;8.70;;;;;;;24.24;75.35;100587.25;4996475;28;20504;-79
2022/06/06 11:15:36;;;;;;;28.27;6.32;;;;;;;23.63;79.88;100583.03;5013888;28;20068;-77
2022/06/06 11:18:20;;;;;;;24.13;6.20;;;;;;;23.06;83.13;100605.47;5014164;28;20025;-77
2022/06/06 11:21:12;;;;;;;21.73;6.32;;;;;;;22.70;86.29;100606.59;5012811;28;20054;-77
2022/06/06 11:23:56;;;;;;;14.05;6.10;;;;;;;22.39;89.08;100592.50;5013543;28;20034;-78
2022/06/06 11:26:40;;;;;;;19.23;5.85;;;;;;;22.15;91.43;100604.78;5013718;28;20025;-77
2022/06/06 11:29:10;;;;;;;21.83;5.57;;;;;;;22.03;92.46;100603.63;5012362;28;20381;-77
2022/06/06 11:32:13;;;;;;;24.02;7.75;;;;;;;21.98;93.55;100611.63;5013621;28;20025;-78
2022/06/06 11:35:00;;;;;;;20.55;9.52;;;;;;;21.92;94.47;100622.53;5013523;28;20034;-76
2022/06/06 11:37:41;;;;;;;16.45;7.07;;;;;;;21.87;94.53;100620.31;4996021;28;20571;-79
2022/06/06 11:40:45;;;;;;;19.40;7.57;;;;;;;22.04;95.91;100626.41;5013505;28;20037;-77
2022/06/06 11:43:27;;;;;;;13.25;7.30;;;;;;;22.17;97.42;100623.75;5001661;28;20037;-77
2022/06/06 11:46:37;;;;;;;14.40;7.13;;;;;;;22.49;98.40;100614.91;4995875;28;20018;-78
2022/06/06 11:49:11;;;;;;;17.02;7.22;;;;;;;22.62;99.15;100609.50;5013359;28;20403;-78
2022/06/06 11:51:52;;;;;;;17.10;7.25;;;;;;;22.77;96.50;100602.00;5013217;28;20492;-78
2022/06/06 11:54:45;;;;;;;15.60;6.53;;;;;;;22.95;94.94;100606.06;5013154;28;20037;-78
2022/06/06 11:57:35;;;;;;;11.23;5.80;;;;;;;22.97;93.38;100590.25;5013126;28;20105;-78
2022/06/06 12:00:22;;;;;;;17.55;6.45;;;;;;;23.05;92.54;100590.94;4995795;28;20411;-77
2022/06/06 12:03:16;;;;;;;11.57;6.45;;;;;;;22.97;89.83;100587.50;4996098;28;20038;-79
2022/06/06 12:06:09;;;;;;;13.10;4.68;;;;;;;22.88;88.90;100596.97;5013167;28;20107;-78
2022/06/06 12:08:47;;;;;;;14.52;5.28;;;;;;;22.78;88.76;100591.88;5015592;28;20029;-78
2022/06/06 12:11:37;;;;;;;13.00;5.00;;;;;;;22.71;89.41;100591.84;5016724;28;20510;-78
2022/06/06 12:14:35;;;;;;;8.20;4.57;;;;;;;22.54;89.35;100595.09;5016352;28;20076;-78
2022/06/06 12:17:27;;;;;;;11.55;5.63;;;;;;;22.36;90.14;100592.88;5016101;28;20083;-78
2022/06/06 12:20:28;;;;;;;11.77;5.65;;;;;;;22.26;91.66;100597.91;5015622;28;20026;-77
2022/06/06 12:23:17;;;;;;;10.35;6.47;;;;;;;22.45;93.09;100610.00;5012985;28;20149;-78
2022/06/06 12:26:03;;;;;;;9.77;5.78;;;;;;;22.62;93.23;100609.50;5014537;28;20022;-79
2022/06/06 12:28:38;;;;;;;17.33;6.75;;;;;;;22.59;92.27;100604.41;5014937;28;20052;-78
2022/06/06 12:31:29;;;;;;;9.30;5.95;;;;;;;22.58;90.32;100602.72;4994997;28;20030;-79
2022/06/06 12:34:42;;;;;;;11.98;5.97;;;;;;;22.63;89.75;100615.81;4994926;28;20519;-79
2022/06/06 12:37:33;;;;;;;15.48;5.82;;;;;;;22.91;92.25;100607.53;4913928;29;20036;-78
2022/06/06 12:40:28;;;;;;;13.65;6.50;;;;;;;23.17;92.98;100602.13;4913496;29;20518;-79
2022/06/06 12:43:15;;;;;;;11.13;6.95;;;;;;;23.33;89.24;100610.81;5002443;28;20038;-79